Главная страница
METAR-TAF:

METAR-TAF

Аэропорты :

Самсун, Турция

широта: 41-15-15N, долгота: 036-34-03E, высота над уровнем моря: 5 м

Текущие метеонаблюдения

Эта сводка был подготовлена 48 минут назад, в 15:50 UTC
Ветер 7 Узел от западно-северо-западный
Температура 25°C
Влажность 79%
Давление 1013 hPa
Видимость 10 км и более
Отдельные облака на высоте 3600 фута
Отдельные облака на высоте 10000 фута

METAR: LTFH 231550Z 29007KT 9999 SCT036 SCT100 25/21 Q1013 NOSIG

Время: 19:38 (16:38 UTC)

Прогноз

Эта сводка был подготовлена 2 часа и 58 минут назад, в 13:40 UTC
Прогноз действительный с 23-го 15 UTC до 23-го 24 UTC
Ветер 8 Узел от северо-западный
Видимость 10 км и более
небольшая облачность на высоте 3600 фута
Отдельные облака на высоте 10000 фута

TAF: LTFH 231340Z 2315/2324 32008KT 9999 FEW036 SCT100

Метеонаблюдения и прогнозы для более 4000 аэропортов (сводки METAR и TAF).

Имеющиеся станции представлены на карте желтыми и красными точками.

Чтобы увидеть название станции, наведите на нее мышь.

Затем щелкните, чтобы увидеть метеонаблюдения и метеопрогнозы.

Управление картой: чтобы увеличить масштаб, щелкните зеленые кнопки с черным крестиком; чтобы уменьшить масштаб, щелкните зеленую кнопку с тире; для просмотра соседних карт щелкайте зеленые стрелки.


METAR-TAF: